createdAt,value
2022-09-05T00:04:58.455Z,7.37
2022-09-05T00:09:59.994Z,6.37
2022-09-05T00:15:32.600Z,6.77
2022-09-05T00:24:28.310Z,8.80
2022-09-05T00:27:48.921Z,7.27
2022-09-05T00:33:56.491Z,7.23
2022-09-05T00:40:17.557Z,6.20
2022-09-05T00:46:32.445Z,6.00
2022-09-05T00:52:39.586Z,6.53
2022-09-05T00:58:49.393Z,6.93
2022-09-05T01:04:59.874Z,6.27
2022-09-05T01:11:07.564Z,7.23
2022-09-05T01:17:15.298Z,6.40
2022-09-05T01:23:23.470Z,7.43
2022-09-05T01:29:31.279Z,6.83
2022-09-05T01:35:39.189Z,7.03
2022-09-05T01:41:48.169Z,7.60
2022-09-05T01:47:56.088Z,7.10
2022-09-05T01:54:04.015Z,7.47
2022-09-05T02:00:11.029Z,6.40
2022-09-05T02:06:19.647Z,6.40
2022-09-05T02:12:26.880Z,7.17
2022-09-05T02:17:52.502Z,8.67
2022-09-05T02:23:27.373Z,7.47
2022-09-05T02:28:51.003Z,7.50
2022-09-05T02:34:19.049Z,7.10
2022-09-05T02:45:02.952Z,7.23
2022-09-05T02:45:27.465Z,7.60
2022-09-05T02:54:17.876Z,7.50
2022-09-05T02:57:45.689Z,7.90
2022-09-05T03:01:47.101Z,8.17
2022-09-05T03:07:13.707Z,8.00
2022-09-05T03:12:58.779Z,9.03
2022-09-05T03:18:31.399Z,8.23
2022-09-05T03:24:25.799Z,8.37
2022-09-05T03:30:33.376Z,8.60
2022-09-05T03:36:40.959Z,8.13
2022-09-05T03:42:49.878Z,8.70
2022-09-05T03:50:25.850Z,9.00
2022-09-05T03:57:18.180Z,8.33
2022-09-05T04:03:43.605Z,9.37
2022-09-05T04:08:42.261Z,9.73
2022-09-05T04:14:51.009Z,9.10
2022-09-05T04:21:00.695Z,8.73
2022-09-05T04:27:10.202Z,10.17
2022-09-05T04:33:17.559Z,9.33
2022-09-05T04:39:25.083Z,10.10
2022-09-05T04:45:32.483Z,9.13
2022-09-05T04:51:40.057Z,9.63
2022-09-05T04:57:53.000Z,9.53
2022-09-05T05:06:10.309Z,9.47
2022-09-05T05:14:42.421Z,12.47
2022-09-05T05:18:14.522Z,11.43
2022-09-05T05:23:55.254Z,8.97
2022-09-05T05:29:12.884Z,12.43
2022-09-05T05:40:12.685Z,10.87
2022-09-05T05:45:59.336Z,14.77
2022-09-05T05:51:12.654Z,13.37
2022-09-05T05:56:31.466Z,11.03
2022-09-05T06:01:42.955Z,9.83
2022-09-05T06:07:11.073Z,9.57
2022-09-05T06:15:00.315Z,7.83
2022-09-05T06:18:09.304Z,10.53
2022-09-05T06:23:28.873Z,10.40
2022-09-05T06:28:55.258Z,6.70
2022-09-05T06:33:59.811Z,6.85
2022-09-05T06:38:59.549Z,9.88
2022-09-05T06:44:20.030Z,7.82
2022-09-05T06:49:32.504Z,8.18
2022-09-05T06:54:59.898Z,7.32
2022-09-05T07:00:30.443Z,7.57
2022-09-05T07:05:45.141Z,6.35
2022-09-05T07:10:41.218Z,7.22
2022-09-05T07:15:47.701Z,7.47
2022-09-05T07:21:36.127Z,5.63
2022-09-05T07:28:26.618Z,5.80
2022-09-05T07:34:20.644Z,6.13
2022-09-05T07:40:28.971Z,6.60
2022-09-05T07:46:37.565Z,7.20
2022-09-05T07:56:50.492Z,7.03
2022-09-05T07:59:11.985Z,7.50
2022-09-05T08:05:29.212Z,6.93
2022-09-05T08:11:42.693Z,7.28
2022-09-05T08:17:57.602Z,6.15
2022-09-05T08:24:12.992Z,7.32
2022-09-05T08:30:26.986Z,6.20
2022-09-05T08:36:36.675Z,6.72
2022-09-05T08:42:44.043Z,7.03
2022-09-05T08:49:02.171Z,7.22
2022-09-05T08:55:20.412Z,7.30
2022-09-05T09:01:28.661Z,7.27
2022-09-05T09:07:51.499Z,7.17
2022-09-05T09:13:59.870Z,7.20
2022-09-05T09:19:29.855Z,6.67
2022-09-05T09:24:28.344Z,6.17
2022-09-05T09:29:21.807Z,5.57
2022-09-05T09:34:39.672Z,6.18
2022-09-05T09:40:00.472Z,5.88
2022-09-05T09:45:35.444Z,5.60
2022-09-05T09:50:58.791Z,5.07
2022-09-05T09:56:12.330Z,6.15
2022-09-05T10:01:35.049Z,5.80
2022-09-05T10:10:45.152Z,5.72
2022-09-05T10:12:16.507Z,5.68
2022-09-05T10:17:23.609Z,5.00
2022-09-05T10:22:44.472Z,6.20
2022-09-05T10:27:53.866Z,6.13
2022-09-05T10:35:18.207Z,5.93
2022-09-05T10:38:43.540Z,5.25
2022-09-05T10:43:59.588Z,4.72
2022-09-05T10:48:58.948Z,4.60
2022-09-05T10:54:34.208Z,4.78
2022-09-05T11:02:19.907Z,5.63
2022-09-05T11:05:22.866Z,4.65
2022-09-05T11:10:51.247Z,5.22
2022-09-05T11:16:07.457Z,4.93
2022-09-05T11:21:43.373Z,5.20
2022-09-05T11:26:46.450Z,4.57
2022-09-05T11:34:19.557Z,4.55
2022-09-05T11:40:06.173Z,4.28
2022-09-05T11:43:17.579Z,4.85
2022-09-05T11:48:41.910Z,3.25
2022-09-05T11:53:58.786Z,3.90
2022-09-05T11:59:47.370Z,6.03
2022-09-05T12:05:59.413Z,4.50
2022-09-05T12:12:26.685Z,4.27
2022-09-05T12:18:33.460Z,5.17
2022-09-05T12:25:23.967Z,3.77
2022-09-05T12:32:30.470Z,5.07
2022-09-05T12:40:57.991Z,3.90
2022-09-05T12:44:41.912Z,3.50
2022-09-05T12:50:32.791Z,4.23
2022-09-05T12:57:32.524Z,4.17
2022-09-05T13:03:27.881Z,4.20
2022-09-05T13:11:17.267Z,3.57
2022-09-05T13:16:00.509Z,5.67
2022-09-05T13:22:07.464Z,5.10
2022-09-05T13:28:15.074Z,4.03
2022-09-05T13:38:17.484Z,6.77
2022-09-05T13:40:51.607Z,4.97
2022-09-05T13:46:59.405Z,4.63
2022-09-05T13:53:06.458Z,5.20
2022-09-05T13:58:43.201Z,5.33
2022-09-05T14:10:13.034Z,7.40
2022-09-05T14:15:13.750Z,5.80
2022-09-05T14:20:27.703Z,4.53
2022-09-05T14:25:29.315Z,6.27
2022-09-05T14:31:26.529Z,5.47
2022-09-05T14:37:40.491Z,4.47
2022-09-05T14:41:35.930Z,5.60
2022-09-05T14:47:06.512Z,4.57
2022-09-05T15:02:54.230Z,5.20
2022-09-05T15:12:31.343Z,4.97
2022-09-05T15:18:46.782Z,5.53
2022-09-05T15:25:00.443Z,4.87
2022-09-05T15:31:30.568Z,5.50
2022-09-05T15:37:44.727Z,5.53
2022-09-05T15:50:29.737Z,4.70
2022-09-05T15:56:50.612Z,6.60
2022-09-05T16:03:16.235Z,6.27
2022-09-05T16:10:33.562Z,4.80
2022-09-05T16:23:13.988Z,6.03
2022-09-05T16:23:29.336Z,7.23
2022-09-05T16:29:06.476Z,7.00
2022-09-05T16:41:39.675Z,7.20
2022-09-05T16:48:06.075Z,8.33
2022-09-05T16:53:58.055Z,6.17
2022-09-05T16:59:07.566Z,6.10
2022-09-05T17:04:15.967Z,6.30
2022-09-05T17:10:05.751Z,6.60
2022-09-05T17:16:13.536Z,7.40
2022-09-05T17:23:52.706Z,7.10
2022-09-05T17:29:34.488Z,7.20
2022-09-05T17:35:18.574Z,7.80
2022-09-05T17:41:26.276Z,7.93
2022-09-05T17:47:36.473Z,7.97
2022-09-05T17:53:43.986Z,8.70
2022-09-05T17:59:52.861Z,11.10
2022-09-05T18:06:16.169Z,10.43
2022-09-05T18:13:14.330Z,9.63
2022-09-05T18:19:32.489Z,9.07
2022-09-05T18:25:41.317Z,8.17
2022-09-05T18:31:51.960Z,8.90
2022-09-05T18:38:09.565Z,9.10
2022-09-05T18:57:28.338Z,8.83
2022-09-05T19:04:07.367Z,9.50
2022-09-05T19:09:38.048Z,8.53
2022-09-05T19:15:15.202Z,9.27
2022-09-05T19:21:41.633Z,8.60
2022-09-05T19:36:48.765Z,8.73
2022-09-05T19:42:52.642Z,10.00
2022-09-05T19:45:02.204Z,9.17
2022-09-05T19:50:24.049Z,10.60
2022-09-05T19:56:15.758Z,24.13
2022-09-05T20:01:41.167Z,9.70
2022-09-05T20:13:31.901Z,9.57
2022-09-05T20:25:05.387Z,9.90
2022-09-05T20:30:01.958Z,10.60
2022-09-05T20:43:21.592Z,8.97
2022-09-05T20:51:33.272Z,9.20
2022-09-05T20:54:27.970Z,11.00
2022-09-05T20:57:32.545Z,14.00
2022-09-05T21:02:32.922Z,12.20
2022-09-05T21:08:07.679Z,9.60
2022-09-05T21:13:03.002Z,12.00
2022-09-05T21:18:22.762Z,10.20
2022-09-05T21:23:29.892Z,11.43
2022-09-05T21:28:37.016Z,9.50
2022-09-05T21:33:45.271Z,9.53
2022-09-05T21:38:44.135Z,8.87
2022-09-05T21:47:33.598Z,11.13
2022-09-05T21:48:54.282Z,9.80
2022-09-05T21:59:14.595Z,10.33
2022-09-05T21:59:36.534Z,9.03
2022-09-05T22:04:22.468Z,10.13
2022-09-05T22:09:20.214Z,10.83
2022-09-05T22:14:13.087Z,11.97
2022-09-05T22:19:06.006Z,9.60
2022-09-05T22:24:12.612Z,10.57
2022-09-05T22:29:06.023Z,10.90
2022-09-05T22:33:59.517Z,11.47
2022-09-05T22:38:53.340Z,14.50
2022-09-05T22:43:52.130Z,17.63
2022-09-05T22:48:44.754Z,16.57
2022-09-05T22:53:38.702Z,14.17
2022-09-05T22:58:37.003Z,14.93
2022-09-05T23:03:29.729Z,13.63
2022-09-05T23:08:22.370Z,10.80
2022-09-05T23:13:15.612Z,12.03
2022-09-05T23:18:16.006Z,11.90
2022-09-05T23:23:09.335Z,10.33
2022-09-05T23:28:11.246Z,10.80
2022-09-05T23:33:08.256Z,12.10
2022-09-05T23:38:22.881Z,11.27
2022-09-05T23:43:15.509Z,10.90
2022-09-05T23:48:08.064Z,11.67
2022-09-05T23:53:04.450Z,10.43
2022-09-05T23:57:58.856Z,10.27
